Terminal Aerodrome Forecast
Issued by NWS Louisville, KY

Home | Current Version | Previous Version | Text Only | Print | Product List | Glossary On
Versions: 1 2 3 4 5 6 7 8 9 10 11 12
000
FTUS43 KLMK 261725
TAFBWG
TAF
KBWG 261725Z 2618/2718 32006KT P6SM SCT060 SCT200
     FM270200 00000KT P6SM SCT060 BKN200
     FM270400 00000KT P6SM VCSH SCT070 BKN130
     FM271200 VRB03KT P6SM SCT035 BKN080
     FM271300 VRB03KT P6SM FEW035 SCT100=

USA.gov is the U.S. government's official web portal to all federal, state and local government web resources and services.